sensor_id;sensor_type;location;lat;lon;timestamp;P1;durP1;ratioP1;P2;durP2;ratioP2
74457;SDS011;62896;51.032;3.712;2022-10-17T00:01:06;9.4;;;6.2;;
74457;SDS011;62896;51.032;3.712;2022-10-17T00:04:26;9.4;;;6.2;;
74457;SDS011;62896;51.032;3.712;2022-10-17T00:07:46;9.4;;;6.2;;
74457;SDS011;62896;51.032;3.712;2022-10-17T00:11:06;9.4;;;6.2;;
74457;SDS011;62896;51.032;3.712;2022-10-17T00:14:26;9.4;;;6.2;;
74457;SDS011;62896;51.032;3.712;2022-10-17T00:17:46;9.4;;;6.2;;
74457;SDS011;62896;51.032;3.712;2022-10-17T00:21:09;9.4;;;6.2;;
74457;SDS011;62896;51.032;3.712;2022-10-17T00:24:26;9.4;;;6.2;;
74457;SDS011;62896;51.032;3.712;2022-10-17T00:27:46;9.5;;;5.5;;
74457;SDS011;62896;51.032;3.712;2022-10-17T00:31:06;9.5;;;5.5;;
74457;SDS011;62896;51.032;3.712;2022-10-17T00:34:27;9.5;;;5.5;;
74457;SDS011;62896;51.032;3.712;2022-10-17T00:37:46;9.5;;;5.5;;
74457;SDS011;62896;51.032;3.712;2022-10-17T00:41:06;9.5;;;5.5;;
74457;SDS011;62896;51.032;3.712;2022-10-17T00:44:59;9.5;;;5.5;;
74457;SDS011;62896;51.032;3.712;2022-10-17T00:47:47;9.5;;;5.5;;
74457;SDS011;62896;51.032;3.712;2022-10-17T00:51:06;7.6;;;4.2;;
74457;SDS011;62896;51.032;3.712;2022-10-17T00:54:27;7.6;;;4.2;;
74457;SDS011;62896;51.032;3.712;2022-10-17T00:57:46;7.6;;;4.2;;
74457;SDS011;62896;51.032;3.712;2022-10-17T01:01:06;7.6;;;4.2;;
74457;SDS011;62896;51.032;3.712;2022-10-17T01:04:26;7.6;;;4.2;;
74457;SDS011;62896;51.032;3.712;2022-10-17T01:07:46;7.6;;;4.2;;
74457;SDS011;62896;51.032;3.712;2022-10-17T01:11:15;7.6;;;4.2;;
74457;SDS011;62896;51.032;3.712;2022-10-17T01:14:27;7.6;;;4.2;;
74457;SDS011;62896;51.032;3.712;2022-10-17T01:17:51;7.2;;;4.1;;
74457;SDS011;62896;51.032;3.712;2022-10-17T01:21:08;7.2;;;4.1;;
74457;SDS011;62896;51.032;3.712;2022-10-17T01:25:01;7.2;;;4.1;;
74457;SDS011;62896;51.032;3.712;2022-10-17T01:27:48;7.2;;;4.1;;
74457;SDS011;62896;51.032;3.712;2022-10-17T01:31:06;7.2;;;4.1;;
74457;SDS011;62896;51.032;3.712;2022-10-17T01:34:27;7.2;;;4.1;;
74457;SDS011;62896;51.032;3.712;2022-10-17T01:37:46;7.2;;;4.1;;
74457;SDS011;62896;51.032;3.712;2022-10-17T01:41:06;6.8;;;4.1;;
74457;SDS011;62896;51.032;3.712;2022-10-17T01:44:27;6.8;;;4.1;;
74457;SDS011;62896;51.032;3.712;2022-10-17T01:47:46;6.8;;;4.1;;
74457;SDS011;62896;51.032;3.712;2022-10-17T01:51:07;6.8;;;4.1;;
74457;SDS011;62896;51.032;3.712;2022-10-17T01:54:26;6.8;;;4.1;;
74457;SDS011;62896;51.032;3.712;2022-10-17T01:57:47;6.8;;;4.1;;
74457;SDS011;62896;51.032;3.712;2022-10-17T02:01:06;6.8;;;4.1;;
74457;SDS011;62896;51.032;3.712;2022-10-17T02:04:26;6.8;;;4.1;;
74457;SDS011;62896;51.032;3.712;2022-10-17T02:07:46;7.2;;;4.4;;
74457;SDS011;62896;51.032;3.712;2022-10-17T02:11:07;7.2;;;4.4;;
74457;SDS011;62896;51.032;3.712;2022-10-17T02:14:28;7.2;;;4.4;;
74457;SDS011;62896;51.032;3.712;2022-10-17T02:17:47;7.2;;;4.4;;
74457;SDS011;62896;51.032;3.712;2022-10-17T02:21:06;7.2;;;4.4;;
74457;SDS011;62896;51.032;3.712;2022-10-17T02:24:26;7.2;;;4.4;;
74457;SDS011;62896;51.032;3.712;2022-10-17T02:27:47;7.2;;;4.4;;
74457;SDS011;62896;51.032;3.712;2022-10-17T02:31:06;6.8;;;4.6;;
74457;SDS011;62896;51.032;3.712;2022-10-17T02:34:26;6.8;;;4.6;;
74457;SDS011;62896;51.032;3.712;2022-10-17T02:37:46;6.8;;;4.6;;
74457;SDS011;62896;51.032;3.712;2022-10-17T02:41:06;6.8;;;4.6;;
74457;SDS011;62896;51.032;3.712;2022-10-17T02:44:26;6.8;;;4.6;;
74457;SDS011;62896;51.032;3.712;2022-10-17T02:47:48;6.8;;;4.6;;
74457;SDS011;62896;51.032;3.712;2022-10-17T02:51:06;6.8;;;4.6;;
74457;SDS011;62896;51.032;3.712;2022-10-17T02:54:27;6.8;;;4.6;;
74457;SDS011;62896;51.032;3.712;2022-10-17T02:57:47;5.8;;;4;;
74457;SDS011;62896;51.032;3.712;2022-10-17T03:01:06;5.8;;;4;;
74457;SDS011;62896;51.032;3.712;2022-10-17T03:04:26;5.8;;;4;;
74457;SDS011;62896;51.032;3.712;2022-10-17T03:07:46;5.8;;;4;;
74457;SDS011;62896;51.032;3.712;2022-10-17T03:11:06;5.8;;;4;;
74457;SDS011;62896;51.032;3.712;2022-10-17T03:14:26;5.8;;;4;;
74457;SDS011;62896;51.032;3.712;2022-10-17T03:17:46;5.8;;;4;;
74457;SDS011;62896;51.032;3.712;2022-10-17T03:21:06;8.1;;;4;;
74457;SDS011;62896;51.032;3.712;2022-10-17T03:24:26;8.1;;;4;;
74457;SDS011;62896;51.032;3.712;2022-10-17T03:27:46;8.1;;;4;;
74457;SDS011;62896;51.032;3.712;2022-10-17T03:31:06;8.1;;;4;;
74457;SDS011;62896;51.032;3.712;2022-10-17T03:34:26;8.1;;;4;;
74457;SDS011;62896;51.032;3.712;2022-10-17T03:37:46;8.1;;;4;;
74457;SDS011;62896;51.032;3.712;2022-10-17T03:41:06;8.1;;;4;;
74457;SDS011;62896;51.032;3.712;2022-10-17T03:44:26;8.1;;;4;;
74457;SDS011;62896;51.032;3.712;2022-10-17T03:47:46;7.4;;;3.9;;
74457;SDS011;62896;51.032;3.712;2022-10-17T03:51:06;7.4;;;3.9;;
74457;SDS011;62896;51.032;3.712;2022-10-17T03:54:26;7.4;;;3.9;;
74457;SDS011;62896;51.032;3.712;2022-10-17T03:57:46;7.4;;;3.9;;
74457;SDS011;62896;51.032;3.712;2022-10-17T04:01:06;7.4;;;3.9;;
74457;SDS011;62896;51.032;3.712;2022-10-17T04:04:26;7.4;;;3.9;;
74457;SDS011;62896;51.032;3.712;2022-10-17T04:07:46;7.4;;;3.9;;
74457;SDS011;62896;51.032;3.712;2022-10-17T04:11:06;8.8;;;4.5;;
74457;SDS011;62896;51.032;3.712;2022-10-17T04:14:26;8.8;;;4.5;;
74457;SDS011;62896;51.032;3.712;2022-10-17T04:17:46;8.8;;;4.5;;
74457;SDS011;62896;51.032;3.712;2022-10-17T04:21:06;8.8;;;4.5;;
74457;SDS011;62896;51.032;3.712;2022-10-17T04:24:26;8.8;;;4.5;;
74457;SDS011;62896;51.032;3.712;2022-10-17T04:27:46;8.8;;;4.5;;
74457;SDS011;62896;51.032;3.712;2022-10-17T04:31:06;8.8;;;4.5;;
74457;SDS011;62896;51.032;3.712;2022-10-17T04:34:26;8.8;;;4.5;;
74457;SDS011;62896;51.032;3.712;2022-10-17T04:37:46;12.2;;;4.8;;
74457;SDS011;62896;51.032;3.712;2022-10-17T04:41:07;12.2;;;4.8;;
74457;SDS011;62896;51.032;3.712;2022-10-17T04:44:26;12.2;;;4.8;;
74457;SDS011;62896;51.032;3.712;2022-10-17T04:47:45;12.2;;;4.8;;
74457;SDS011;62896;51.032;3.712;2022-10-17T04:51:06;12.2;;;4.8;;
74457;SDS011;62896;51.032;3.712;2022-10-17T04:54:26;12.2;;;4.8;;
74457;SDS011;62896;51.032;3.712;2022-10-17T04:57:46;12.2;;;4.8;;
74457;SDS011;62896;51.032;3.712;2022-10-17T05:01:06;10.2;;;5;;
74457;SDS011;62896;51.032;3.712;2022-10-17T05:04:25;10.2;;;5;;
74457;SDS011;62896;51.032;3.712;2022-10-17T05:07:46;10.2;;;5;;
74457;SDS011;62896;51.032;3.712;2022-10-17T05:11:13;10.2;;;5;;
74457;SDS011;62896;51.032;3.712;2022-10-17T05:14:26;10.2;;;5;;
74457;SDS011;62896;51.032;3.712;2022-10-17T05:17:45;10.2;;;5;;
74457;SDS011;62896;51.032;3.712;2022-10-17T05:21:05;10.2;;;5;;
74457;SDS011;62896;51.032;3.712;2022-10-17T05:24:26;10.2;;;5;;
74457;SDS011;62896;51.032;3.712;2022-10-17T05:27:45;10.4;;;4.9;;
74457;SDS011;62896;51.032;3.712;2022-10-17T05:31:06;10.4;;;4.9;;
74457;SDS011;62896;51.032;3.712;2022-10-17T05:34:26;10.4;;;4.9;;
74457;SDS011;62896;51.032;3.712;2022-10-17T05:37:46;10.4;;;4.9;;
74457;SDS011;62896;51.032;3.712;2022-10-17T05:41:06;10.4;;;4.9;;
74457;SDS011;62896;51.032;3.712;2022-10-17T05:44:25;10.4;;;4.9;;
74457;SDS011;62896;51.032;3.712;2022-10-17T05:47:46;10.4;;;4.9;;
74457;SDS011;62896;51.032;3.712;2022-10-17T05:51:06;15.3;;;5.3;;
74457;SDS011;62896;51.032;3.712;2022-10-17T05:54:26;15.3;;;5.3;;
74457;SDS011;62896;51.032;3.712;2022-10-17T05:57:46;15.3;;;5.3;;
74457;SDS011;62896;51.032;3.712;2022-10-17T06:01:06;15.3;;;5.3;;
74457;SDS011;62896;51.032;3.712;2022-10-17T06:04:26;15.3;;;5.3;;
74457;SDS011;62896;51.032;3.712;2022-10-17T06:07:46;15.3;;;5.3;;
74457;SDS011;62896;51.032;3.712;2022-10-17T06:11:06;15.3;;;5.3;;
74457;SDS011;62896;51.032;3.712;2022-10-17T06:14:26;15.3;;;5.3;;
74457;SDS011;62896;51.032;3.712;2022-10-17T06:17:46;10.7;;;5.2;;
74457;SDS011;62896;51.032;3.712;2022-10-17T06:21:06;10.7;;;5.2;;
74457;SDS011;62896;51.032;3.712;2022-10-17T06:24:26;10.7;;;5.2;;
74457;SDS011;62896;51.032;3.712;2022-10-17T06:27:46;10.7;;;5.2;;
74457;SDS011;62896;51.032;3.712;2022-10-17T06:31:06;10.7;;;5.2;;
74457;SDS011;62896;51.032;3.712;2022-10-17T06:34:26;10.7;;;5.2;;
74457;SDS011;62896;51.032;3.712;2022-10-17T06:37:46;10.7;;;5.2;;
74457;SDS011;62896;51.032;3.712;2022-10-17T06:41:06;11.4;;;5;;
74457;SDS011;62896;51.032;3.712;2022-10-17T06:44:26;11.4;;;5;;
74457;SDS011;62896;51.032;3.712;2022-10-17T06:47:46;11.4;;;5;;
74457;SDS011;62896;51.032;3.712;2022-10-17T06:51:06;11.4;;;5;;
74457;SDS011;62896;51.032;3.712;2022-10-17T06:54:26;11.4;;;5;;
74457;SDS011;62896;51.032;3.712;2022-10-17T06:57:46;11.4;;;5;;
74457;SDS011;62896;51.032;3.712;2022-10-17T07:01:07;11.4;;;5;;
74457;SDS011;62896;51.032;3.712;2022-10-17T07:04:26;11.4;;;5;;
74457;SDS011;62896;51.032;3.712;2022-10-17T07:07:46;12.3;;;5.2;;
74457;SDS011;62896;51.032;3.712;2022-10-17T07:11:09;12.3;;;5.2;;
74457;SDS011;62896;51.032;3.712;2022-10-17T07:14:26;12.3;;;5.2;;
74457;SDS011;62896;51.032;3.712;2022-10-17T07:17:47;12.3;;;5.2;;
74457;SDS011;62896;51.032;3.712;2022-10-17T07:21:06;12.3;;;5.2;;
74457;SDS011;62896;51.032;3.712;2022-10-17T07:24:26;12.3;;;5.2;;
74457;SDS011;62896;51.032;3.712;2022-10-17T07:27:47;12.3;;;5.2;;
74457;SDS011;62896;51.032;3.712;2022-10-17T07:31:06;12.7;;;5.8;;
74457;SDS011;62896;51.032;3.712;2022-10-17T07:34:25;12.7;;;5.8;;
74457;SDS011;62896;51.032;3.712;2022-10-17T07:37:46;12.7;;;5.8;;
74457;SDS011;62896;51.032;3.712;2022-10-17T07:41:06;12.7;;;5.8;;
74457;SDS011;62896;51.032;3.712;2022-10-17T07:44:26;12.7;;;5.8;;
74457;SDS011;62896;51.032;3.712;2022-10-17T07:47:46;12.7;;;5.8;;
74457;SDS011;62896;51.032;3.712;2022-10-17T07:51:06;12.7;;;5.8;;
74457;SDS011;62896;51.032;3.712;2022-10-17T07:54:26;12.7;;;5.8;;
74457;SDS011;62896;51.032;3.712;2022-10-17T07:57:46;8.7;;;6.3;;
74457;SDS011;62896;51.032;3.712;2022-10-17T08:01:06;8.7;;;6.3;;
74457;SDS011;62896;51.032;3.712;2022-10-17T08:04:26;8.7;;;6.3;;
74457;SDS011;62896;51.032;3.712;2022-10-17T08:07:46;8.7;;;6.3;;
74457;SDS011;62896;51.032;3.712;2022-10-17T08:11:07;8.7;;;6.3;;
74457;SDS011;62896;51.032;3.712;2022-10-17T08:14:26;8.7;;;6.3;;
74457;SDS011;62896;51.032;3.712;2022-10-17T08:17:46;8.7;;;6.3;;
74457;SDS011;62896;51.032;3.712;2022-10-17T08:21:06;9.5;;;5.6;;
74457;SDS011;62896;51.032;3.712;2022-10-17T08:24:26;9.5;;;5.6;;
74457;SDS011;62896;51.032;3.712;2022-10-17T08:27:46;9.5;;;5.6;;
74457;SDS011;62896;51.032;3.712;2022-10-17T08:31:06;9.5;;;5.6;;
74457;SDS011;62896;51.032;3.712;2022-10-17T08:34:26;9.5;;;5.6;;
74457;SDS011;62896;51.032;3.712;2022-10-17T08:37:46;9.5;;;5.6;;
74457;SDS011;62896;51.032;3.712;2022-10-17T08:41:09;9.5;;;5.6;;
74457;SDS011;62896;51.032;3.712;2022-10-17T08:44:30;9.5;;;5.6;;
74457;SDS011;62896;51.032;3.712;2022-10-17T08:47:46;14.1;;;6.2;;
74457;SDS011;62896;51.032;3.712;2022-10-17T08:51:08;14.1;;;6.2;;
74457;SDS011;62896;51.032;3.712;2022-10-17T08:54:29;14.1;;;6.2;;
74457;SDS011;62896;51.032;3.712;2022-10-17T08:57:46;14.1;;;6.2;;
74457;SDS011;62896;51.032;3.712;2022-10-17T09:01:07;14.1;;;6.2;;
74457;SDS011;62896;51.032;3.712;2022-10-17T09:04:33;14.1;;;6.2;;
74457;SDS011;62896;51.032;3.712;2022-10-17T09:07:46;14.1;;;6.2;;
74457;SDS011;62896;51.032;3.712;2022-10-17T09:11:08;9.7;;;6.1;;
74457;SDS011;62896;51.032;3.712;2022-10-17T09:14:30;9.7;;;6.1;;
74457;SDS011;62896;51.032;3.712;2022-10-17T09:17:49;9.7;;;6.1;;
74457;SDS011;62896;51.032;3.712;2022-10-17T09:21:09;9.7;;;6.1;;
74457;SDS011;62896;51.032;3.712;2022-10-17T09:24:36;9.7;;;6.1;;
74457;SDS011;62896;51.032;3.712;2022-10-17T09:27:46;9.7;;;6.1;;
74457;SDS011;62896;51.032;3.712;2022-10-17T09:31:08;9.7;;;6.1;;
74457;SDS011;62896;51.032;3.712;2022-10-17T09:34:26;9.7;;;6.1;;
74457;SDS011;62896;51.032;3.712;2022-10-17T09:37:45;12.3;;;6.9;;
74457;SDS011;62896;51.032;3.712;2022-10-17T09:41:06;12.3;;;6.9;;
74457;SDS011;62896;51.032;3.712;2022-10-17T09:44:28;12.3;;;6.9;;
74457;SDS011;62896;51.032;3.712;2022-10-17T09:47:46;12.3;;;6.9;;
74457;SDS011;62896;51.032;3.712;2022-10-17T09:51:06;12.3;;;6.9;;
74457;SDS011;62896;51.032;3.712;2022-10-17T09:54:26;12.3;;;6.9;;
74457;SDS011;62896;51.032;3.712;2022-10-17T09:57:52;12.3;;;6.9;;
74457;SDS011;62896;51.032;3.712;2022-10-17T10:01:14;7.4;;;5.5;;
74457;SDS011;62896;51.032;3.712;2022-10-17T10:04:25;7.4;;;5.5;;
74457;SDS011;62896;51.032;3.712;2022-10-17T10:07:58;7.4;;;5.5;;
74457;SDS011;62896;51.032;3.712;2022-10-17T10:11:06;7.4;;;5.5;;
74457;SDS011;62896;51.032;3.712;2022-10-17T10:14:27;7.4;;;5.5;;
74457;SDS011;62896;51.032;3.712;2022-10-17T10:17:46;7.4;;;5.5;;
74457;SDS011;62896;51.032;3.712;2022-10-17T10:21:07;7.4;;;5.5;;
74457;SDS011;62896;51.032;3.712;2022-10-17T10:24:26;7.4;;;5.5;;
74457;SDS011;62896;51.032;3.712;2022-10-17T10:27:46;10.1;;;5.8;;
74457;SDS011;62896;51.032;3.712;2022-10-17T10:31:06;10.1;;;5.8;;
74457;SDS011;62896;51.032;3.712;2022-10-17T10:34:26;10.1;;;5.8;;
74457;SDS011;62896;51.032;3.712;2022-10-17T10:37:47;10.1;;;5.8;;
74457;SDS011;62896;51.032;3.712;2022-10-17T10:41:06;10.1;;;5.8;;
74457;SDS011;62896;51.032;3.712;2022-10-17T10:44:26;10.1;;;5.8;;
74457;SDS011;62896;51.032;3.712;2022-10-17T10:47:49;10.1;;;5.8;;
74457;SDS011;62896;51.032;3.712;2022-10-17T10:51:07;4.9;;;3.6;;
74457;SDS011;62896;51.032;3.712;2022-10-17T10:54:27;4.9;;;3.6;;
74457;SDS011;62896;51.032;3.712;2022-10-17T10:57:46;4.9;;;3.6;;
74457;SDS011;62896;51.032;3.712;2022-10-17T11:01:08;4.9;;;3.6;;
74457;SDS011;62896;51.032;3.712;2022-10-17T11:04:27;4.9;;;3.6;;
74457;SDS011;62896;51.032;3.712;2022-10-17T11:07:48;4.9;;;3.6;;
74457;SDS011;62896;51.032;3.712;2022-10-17T11:11:08;4.9;;;3.6;;
74457;SDS011;62896;51.032;3.712;2022-10-17T11:14:31;4.9;;;3.6;;
74457;SDS011;62896;51.032;3.712;2022-10-17T11:17:49;4.1;;;3;;
74457;SDS011;62896;51.032;3.712;2022-10-17T11:21:09;4.1;;;3;;
74457;SDS011;62896;51.032;3.712;2022-10-17T11:24:27;4.1;;;3;;
74457;SDS011;62896;51.032;3.712;2022-10-17T11:27:46;4.1;;;3;;
74457;SDS011;62896;51.032;3.712;2022-10-17T11:31:06;4.1;;;3;;
74457;SDS011;62896;51.032;3.712;2022-10-17T11:34:26;4.1;;;3;;
74457;SDS011;62896;51.032;3.712;2022-10-17T11:37:47;4.1;;;3;;
74457;SDS011;62896;51.032;3.712;2022-10-17T11:41:07;4.8;;;2.9;;
74457;SDS011;62896;51.032;3.712;2022-10-17T11:44:27;4.8;;;2.9;;
74457;SDS011;62896;51.032;3.712;2022-10-17T11:47:47;4.8;;;2.9;;
74457;SDS011;62896;51.032;3.712;2022-10-17T11:51:07;4.8;;;2.9;;
74457;SDS011;62896;51.032;3.712;2022-10-17T11:54:27;4.8;;;2.9;;
74457;SDS011;62896;51.032;3.712;2022-10-17T11:57:50;4.8;;;2.9;;
74457;SDS011;62896;51.032;3.712;2022-10-17T12:01:08;4.8;;;2.9;;
74457;SDS011;62896;51.032;3.712;2022-10-17T12:04:29;4.8;;;2.9;;
74457;SDS011;62896;51.032;3.712;2022-10-17T12:07:47;4.2;;;2.6;;
74457;SDS011;62896;51.032;3.712;2022-10-17T12:11:07;4.2;;;2.6;;
74457;SDS011;62896;51.032;3.712;2022-10-17T12:14:34;4.2;;;2.6;;
74457;SDS011;62896;51.032;3.712;2022-10-17T12:17:46;4.2;;;2.6;;
74457;SDS011;62896;51.032;3.712;2022-10-17T12:21:06;4.2;;;2.6;;
74457;SDS011;62896;51.032;3.712;2022-10-17T12:24:31;4.2;;;2.6;;
74457;SDS011;62896;51.032;3.712;2022-10-17T12:27:46;4.2;;;2.6;;
74457;SDS011;62896;51.032;3.712;2022-10-17T12:31:07;5.6;;;2.7;;
74457;SDS011;62896;51.032;3.712;2022-10-17T12:34:26;5.6;;;2.7;;
74457;SDS011;62896;51.032;3.712;2022-10-17T12:38:02;5.6;;;2.7;;
74457;SDS011;62896;51.032;3.712;2022-10-17T12:41:06;5.6;;;2.7;;
74457;SDS011;62896;51.032;3.712;2022-10-17T12:44:34;5.6;;;2.7;;
74457;SDS011;62896;51.032;3.712;2022-10-17T12:47:46;5.6;;;2.7;;
74457;SDS011;62896;51.032;3.712;2022-10-17T12:51:06;5.6;;;2.7;;
74457;SDS011;62896;51.032;3.712;2022-10-17T12:54:26;5.6;;;2.7;;
74457;SDS011;62896;51.032;3.712;2022-10-17T12:57:47;4.9;;;2.4;;
74457;SDS011;62896;51.032;3.712;2022-10-17T13:01:08;4.9;;;2.4;;
74457;SDS011;62896;51.032;3.712;2022-10-17T13:04:26;4.9;;;2.4;;
74457;SDS011;62896;51.032;3.712;2022-10-17T13:07:46;4.9;;;2.4;;
74457;SDS011;62896;51.032;3.712;2022-10-17T13:11:06;4.9;;;2.4;;
74457;SDS011;62896;51.032;3.712;2022-10-17T13:14:26;4.9;;;2.4;;
74457;SDS011;62896;51.032;3.712;2022-10-17T13:17:54;4.9;;;2.4;;
74457;SDS011;62896;51.032;3.712;2022-10-17T13:21:14;4.5;;;2;;
74457;SDS011;62896;51.032;3.712;2022-10-17T13:24:27;4.5;;;2;;
74457;SDS011;62896;51.032;3.712;2022-10-17T13:27:46;4.5;;;2;;
74457;SDS011;62896;51.032;3.712;2022-10-17T13:31:06;4.5;;;2;;
74457;SDS011;62896;51.032;3.712;2022-10-17T13:34:26;4.5;;;2;;
74457;SDS011;62896;51.032;3.712;2022-10-17T13:37:46;4.5;;;2;;
74457;SDS011;62896;51.032;3.712;2022-10-17T13:41:09;4.5;;;2;;
74457;SDS011;62896;51.032;3.712;2022-10-17T13:44:26;4.5;;;2;;
74457;SDS011;62896;51.032;3.712;2022-10-17T13:47:46;5.6;;;2.1;;
74457;SDS011;62896;51.032;3.712;2022-10-17T13:51:06;5.6;;;2.1;;
74457;SDS011;62896;51.032;3.712;2022-10-17T13:54:30;5.6;;;2.1;;
74457;SDS011;62896;51.032;3.712;2022-10-17T13:57:46;5.6;;;2.1;;
74457;SDS011;62896;51.032;3.712;2022-10-17T14:01:06;5.6;;;2.1;;
74457;SDS011;62896;51.032;3.712;2022-10-17T14:04:26;5.6;;;2.1;;
74457;SDS011;62896;51.032;3.712;2022-10-17T14:07:49;5.6;;;2.1;;
74457;SDS011;62896;51.032;3.712;2022-10-17T14:11:12;4.5;;;1.9;;
74457;SDS011;62896;51.032;3.712;2022-10-17T14:14:26;4.5;;;1.9;;
74457;SDS011;62896;51.032;3.712;2022-10-17T14:17:52;4.5;;;1.9;;
74457;SDS011;62896;51.032;3.712;2022-10-17T14:21:06;4.5;;;1.9;;
74457;SDS011;62896;51.032;3.712;2022-10-17T14:24:26;4.5;;;1.9;;
74457;SDS011;62896;51.032;3.712;2022-10-17T14:27:51;4.5;;;1.9;;
74457;SDS011;62896;51.032;3.712;2022-10-17T14:31:08;4.5;;;1.9;;
74457;SDS011;62896;51.032;3.712;2022-10-17T14:34:27;4.5;;;1.9;;
74457;SDS011;62896;51.032;3.712;2022-10-17T14:37:46;4.4;;;1.7;;
74457;SDS011;62896;51.032;3.712;2022-10-17T14:41:07;4.4;;;1.7;;
74457;SDS011;62896;51.032;3.712;2022-10-17T14:44:26;4.4;;;1.7;;
74457;SDS011;62896;51.032;3.712;2022-10-17T14:47:47;4.4;;;1.7;;
74457;SDS011;62896;51.032;3.712;2022-10-17T14:51:07;4.4;;;1.7;;
74457;SDS011;62896;51.032;3.712;2022-10-17T14:54:26;4.4;;;1.7;;
74457;SDS011;62896;51.032;3.712;2022-10-17T14:57:46;4.4;;;1.7;;
74457;SDS011;62896;51.032;3.712;2022-10-17T15:01:06;5.7;;;2.4;;
74457;SDS011;62896;51.032;3.712;2022-10-17T15:04:26;5.7;;;2.4;;
74457;SDS011;62896;51.032;3.712;2022-10-17T15:07:46;5.7;;;2.4;;
74457;SDS011;62896;51.032;3.712;2022-10-17T15:11:07;5.7;;;2.4;;
74457;SDS011;62896;51.032;3.712;2022-10-17T15:14:26;5.7;;;2.4;;
74457;SDS011;62896;51.032;3.712;2022-10-17T15:17:46;5.7;;;2.4;;
74457;SDS011;62896;51.032;3.712;2022-10-17T15:21:07;5.7;;;2.4;;
74457;SDS011;62896;51.032;3.712;2022-10-17T15:24:26;5.7;;;2.4;;
74457;SDS011;62896;51.032;3.712;2022-10-17T15:27:46;6.2;;;2.9;;
74457;SDS011;62896;51.032;3.712;2022-10-17T15:31:07;6.2;;;2.9;;
74457;SDS011;62896;51.032;3.712;2022-10-17T15:34:26;6.2;;;2.9;;
74457;SDS011;62896;51.032;3.712;2022-10-17T15:37:46;6.2;;;2.9;;
74457;SDS011;62896;51.032;3.712;2022-10-17T15:41:07;6.2;;;2.9;;
74457;SDS011;62896;51.032;3.712;2022-10-17T15:44:26;6.2;;;2.9;;
74457;SDS011;62896;51.032;3.712;2022-10-17T15:47:48;6.2;;;2.9;;
74457;SDS011;62896;51.032;3.712;2022-10-17T15:51:06;5.5;;;2.5;;
74457;SDS011;62896;51.032;3.712;2022-10-17T15:54:26;5.5;;;2.5;;
74457;SDS011;62896;51.032;3.712;2022-10-17T15:57:46;5.5;;;2.5;;
74457;SDS011;62896;51.032;3.712;2022-10-17T16:01:06;5.5;;;2.5;;
74457;SDS011;62896;51.032;3.712;2022-10-17T16:04:26;5.5;;;2.5;;
74457;SDS011;62896;51.032;3.712;2022-10-17T16:07:46;5.5;;;2.5;;
74457;SDS011;62896;51.032;3.712;2022-10-17T16:11:08;5.5;;;2.5;;
74457;SDS011;62896;51.032;3.712;2022-10-17T16:14:25;5.5;;;2.5;;
74457;SDS011;62896;51.032;3.712;2022-10-17T16:17:45;8.4;;;3.3;;
74457;SDS011;62896;51.032;3.712;2022-10-17T16:21:07;8.4;;;3.3;;
74457;SDS011;62896;51.032;3.712;2022-10-17T16:24:25;8.4;;;3.3;;
74457;SDS011;62896;51.032;3.712;2022-10-17T16:27:46;8.4;;;3.3;;
74457;SDS011;62896;51.032;3.712;2022-10-17T16:31:09;8.4;;;3.3;;
74457;SDS011;62896;51.032;3.712;2022-10-17T16:34:25;8.4;;;3.3;;
74457;SDS011;62896;51.032;3.712;2022-10-17T16:37:45;8.4;;;3.3;;
74457;SDS011;62896;51.032;3.712;2022-10-17T16:41:08;9.8;;;5.9;;
74457;SDS011;62896;51.032;3.712;2022-10-17T16:44:25;9.8;;;5.9;;
74457;SDS011;62896;51.032;3.712;2022-10-17T16:47:46;9.8;;;5.9;;
74457;SDS011;62896;51.032;3.712;2022-10-17T16:51:05;9.8;;;5.9;;
74457;SDS011;62896;51.032;3.712;2022-10-17T16:54:25;9.8;;;5.9;;
74457;SDS011;62896;51.032;3.712;2022-10-17T16:57:45;9.8;;;5.9;;
74457;SDS011;62896;51.032;3.712;2022-10-17T17:01:06;9.8;;;5.9;;
74457;SDS011;62896;51.032;3.712;2022-10-17T17:04:25;9.8;;;5.9;;
74457;SDS011;62896;51.032;3.712;2022-10-17T17:07:45;6.9;;;3.9;;
74457;SDS011;62896;51.032;3.712;2022-10-17T17:11:05;6.9;;;3.9;;
74457;SDS011;62896;51.032;3.712;2022-10-17T17:14:25;6.9;;;3.9;;
74457;SDS011;62896;51.032;3.712;2022-10-17T17:17:45;6.9;;;3.9;;
74457;SDS011;62896;51.032;3.712;2022-10-17T17:21:06;6.9;;;3.9;;
74457;SDS011;62896;51.032;3.712;2022-10-17T17:24:25;6.9;;;3.9;;
74457;SDS011;62896;51.032;3.712;2022-10-17T17:27:45;6.9;;;3.9;;
74457;SDS011;62896;51.032;3.712;2022-10-17T17:31:06;16.4;;;11;;
74457;SDS011;62896;51.032;3.712;2022-10-17T17:34:25;16.4;;;11;;
74457;SDS011;62896;51.032;3.712;2022-10-17T17:37:45;16.4;;;11;;
74457;SDS011;62896;51.032;3.712;2022-10-17T17:41:05;16.4;;;11;;
74457;SDS011;62896;51.032;3.712;2022-10-17T17:44:25;16.4;;;11;;
74457;SDS011;62896;51.032;3.712;2022-10-17T17:47:45;16.4;;;11;;
74457;SDS011;62896;51.032;3.712;2022-10-17T17:51:07;16.4;;;11;;
74457;SDS011;62896;51.032;3.712;2022-10-17T17:54:25;16.4;;;11;;
74457;SDS011;62896;51.032;3.712;2022-10-17T17:57:45;17.4;;;11.7;;
74457;SDS011;62896;51.032;3.712;2022-10-17T18:01:07;17.4;;;11.7;;
74457;SDS011;62896;51.032;3.712;2022-10-17T18:04:25;17.4;;;11.7;;
74457;SDS011;62896;51.032;3.712;2022-10-17T18:07:45;17.4;;;11.7;;
74457;SDS011;62896;51.032;3.712;2022-10-17T18:11:05;17.4;;;11.7;;
74457;SDS011;62896;51.032;3.712;2022-10-17T18:14:25;17.4;;;11.7;;
74457;SDS011;62896;51.032;3.712;2022-10-17T18:17:45;17.4;;;11.7;;
74457;SDS011;62896;51.032;3.712;2022-10-17T18:21:05;16.4;;;11.4;;
74457;SDS011;62896;51.032;3.712;2022-10-17T18:24:25;16.4;;;11.4;;
74457;SDS011;62896;51.032;3.712;2022-10-17T18:27:46;16.4;;;11.4;;
74457;SDS011;62896;51.032;3.712;2022-10-17T18:31:06;16.4;;;11.4;;
74457;SDS011;62896;51.032;3.712;2022-10-17T18:34:25;16.4;;;11.4;;
74457;SDS011;62896;51.032;3.712;2022-10-17T18:37:45;16.4;;;11.4;;
74457;SDS011;62896;51.032;3.712;2022-10-17T18:41:06;16.4;;;11.4;;
74457;SDS011;62896;51.032;3.712;2022-10-17T18:44:25;16.4;;;11.4;;
74457;SDS011;62896;51.032;3.712;2022-10-17T18:47:45;26;;;17.1;;
74457;SDS011;62896;51.032;3.712;2022-10-17T18:51:05;26;;;17.1;;
74457;SDS011;62896;51.032;3.712;2022-10-17T18:54:25;26;;;17.1;;
74457;SDS011;62896;51.032;3.712;2022-10-17T18:57:45;26;;;17.1;;
74457;SDS011;62896;51.032;3.712;2022-10-17T19:01:06;26;;;17.1;;
74457;SDS011;62896;51.032;3.712;2022-10-17T19:04:25;26;;;17.1;;
74457;SDS011;62896;51.032;3.712;2022-10-17T19:07:45;26;;;17.1;;
74457;SDS011;62896;51.032;3.712;2022-10-17T19:11:06;16.3;;;11.4;;
74457;SDS011;62896;51.032;3.712;2022-10-17T19:14:25;16.3;;;11.4;;
74457;SDS011;62896;51.032;3.712;2022-10-17T19:17:45;16.3;;;11.4;;
74457;SDS011;62896;51.032;3.712;2022-10-17T19:21:06;16.3;;;11.4;;
74457;SDS011;62896;51.032;3.712;2022-10-17T19:24:26;16.3;;;11.4;;
74457;SDS011;62896;51.032;3.712;2022-10-17T19:27:45;16.3;;;11.4;;
74457;SDS011;62896;51.032;3.712;2022-10-17T19:31:05;16.3;;;11.4;;
74457;SDS011;62896;51.032;3.712;2022-10-17T19:34:25;16.3;;;11.4;;
74457;SDS011;62896;51.032;3.712;2022-10-17T19:37:45;22.8;;;14;;
74457;SDS011;62896;51.032;3.712;2022-10-17T19:41:06;22.8;;;14;;
74457;SDS011;62896;51.032;3.712;2022-10-17T19:44:25;22.8;;;14;;
74457;SDS011;62896;51.032;3.712;2022-10-17T19:47:45;22.8;;;14;;
74457;SDS011;62896;51.032;3.712;2022-10-17T19:51:06;22.8;;;14;;
74457;SDS011;62896;51.032;3.712;2022-10-17T19:54:25;22.8;;;14;;
74457;SDS011;62896;51.032;3.712;2022-10-17T19:57:46;22.8;;;14;;
74457;SDS011;62896;51.032;3.712;2022-10-17T20:01:05;23.9;;;15.3;;
74457;SDS011;62896;51.032;3.712;2022-10-17T20:04:25;23.9;;;15.3;;
74457;SDS011;62896;51.032;3.712;2022-10-17T20:07:45;23.9;;;15.3;;
74457;SDS011;62896;51.032;3.712;2022-10-17T20:11:06;23.9;;;15.3;;
74457;SDS011;62896;51.032;3.712;2022-10-17T20:14:25;23.9;;;15.3;;
74457;SDS011;62896;51.032;3.712;2022-10-17T20:17:45;23.9;;;15.3;;
74457;SDS011;62896;51.032;3.712;2022-10-17T20:21:06;23.9;;;15.3;;
74457;SDS011;62896;51.032;3.712;2022-10-17T20:24:25;23.9;;;15.3;;
74457;SDS011;62896;51.032;3.712;2022-10-17T20:27:45;17.9;;;13;;
74457;SDS011;62896;51.032;3.712;2022-10-17T20:31:06;17.9;;;13;;
74457;SDS011;62896;51.032;3.712;2022-10-17T20:34:25;17.9;;;13;;
74457;SDS011;62896;51.032;3.712;2022-10-17T20:37:45;17.9;;;13;;